• Join FlightAware (Why Join?)
  • Login
  • US Flag 
06:18AM EDT


 

Airport Tracker/Info


-or-


 

Live Flight TrackerFlight Track Log ✈ UAL4528 ✈ 19-Apr-2013 ✈ KRDU - KIAH

Flight Track Log - Related Links

Times and Time Zones

All times are in EDT time to prevent confusion due to time zone crossing. See the UAL4528 flight status page for this flight to view local times or setup timezone preferences in your user account.

Time Position Orientation Groundspeed Altitude Reporting Facility
EDT Latitude Longitude Course Direction KTS MPH feet Rate Location/Type
02:36PM 35.8644 -78.8164 262° West 155 178 1,200  Level Washington Center
02:36PM 35.8450 -78.8411 226° Southwest 169 194 2,300 1,500 Climbing Washington Center
02:37PM 35.8183 -78.9017 242° Southwest 226 260 3,700 1,800 Climbing Washington Center
02:38PM 35.8222 -78.9811 273° West 251 289 6,000 2,220 Climbing Washington Center
02:39PM 35.8397 -79.2196 263° West  Level FlightAware Approximate
02:39PM 35.8264 -79.0581 274° West 257 296 8,000  Level Washington Center
02:40PM 35.8302 -79.3287 262° West  Level FlightAware Approximate
02:40PM 35.8300 -79.1428 273° West 247 284 9,600  Level Washington Center
02:41PM 35.8181 -79.4374 262° West  Level FlightAware Approximate
02:41PM 35.8319 -79.2172 272° West 252 290 11,300  Level Washington Center
02:42PM 35.8353 -79.3147 272° West 257 296 13,300 1,320 Climbing Washington Center
02:43PM 35.8286 -79.3964 264° West 257 296 14,000 660 Climbing Washington Center
02:45PM 35.8100 -79.5706 263° West 303 349 15,000 720 Climbing Atlanta Center
02:46PM 35.7967 -79.6583 259° West 312 359 16,000 960 Climbing Atlanta Center
02:47PM 35.7647 -79.7597 249° West 312 359 17,000 960 Climbing Atlanta Center
02:48PM 35.7261 -79.8514 243° Southwest 312 359 18,000 1,020 Climbing Atlanta Center
02:49PM 35.6817 -79.9608 243° Southwest 322 371 19,100 900 Climbing Atlanta Center
02:50PM 35.6394 -80.0653 244° Southwest 335 386 19,800 720 Climbing Atlanta Center
02:51PM 35.5903 -80.1597 237° Southwest 341 392 20,600 840 Climbing Atlanta Center
02:52PM 35.5750 -80.2728 261° West 330 380 21,500 900 Climbing Atlanta Center
02:53PM 35.5639 -80.3881 263° West 341 392 22,500 900 Climbing Atlanta Center
02:54PM 35.5525 -80.4983 263° West 341 392 23,400 900 Climbing Atlanta Center
02:55PM 35.5411 -80.6111 263° West 341 392 24,400 960 Climbing Atlanta Center
02:56PM 35.5275 -80.7214 261° West 330 380 25,400 960 Climbing Atlanta Center
02:57PM 35.5178 -80.8342 264° West 330 380 26,400 900 Climbing Atlanta Center
02:58PM 35.5058 -80.9289 261° West 335 386 27,200 900 Climbing Atlanta Center
02:59PM 35.4917 -81.0367 261° West 329 379 28,200 960 Climbing Atlanta Center
03:00PM 35.4797 -81.1467 262° West 329 379 29,200 960 Climbing Atlanta Center
03:01PM 35.4636 -81.2669 261° West 329 379 30,200 960 Climbing Atlanta Center
03:02PM 35.4556 -81.3744 265° West 329 379 31,200 960 Climbing Atlanta Center
03:03PM 35.4433 -81.4819 262° West 329 379 32,200 960 Climbing Atlanta Center
03:04PM 35.4308 -81.5842 261° West 317 365 33,200 960 Climbing Atlanta Center
03:05PM 35.4222 -81.6814 264° West 301 346 34,200 960 Climbing Atlanta Center
03:06PM 35.4097 -81.7811 261° West 292 336 35,200 900 Climbing Atlanta Center
03:07PM 35.3989 -81.8756 262° West 292 336 36,000 360 Climbing Atlanta Center
03:08PM 35.3897 -81.9575 262° West 286 329 36,000  Level Atlanta Center
03:09PM 35.3767 -82.0569 261° West 292 336 36,000  Level Atlanta Center
03:10PM 35.3639 -82.1617 262° West 303 349 36,000  Level Atlanta Center
03:11PM 35.3528 -82.2689 263° West 316 364 36,000  Level Atlanta Center
03:12PM 35.3378 -82.3814 261° West 332 382 36,000  Level Atlanta Center
03:13PM 35.3247 -82.4961 262° West 337 388 36,000  Level Atlanta Center
03:14PM 35.3075 -82.6264 261° West 342 394 36,000  Level Atlanta Center
03:15PM 35.2919 -82.7386 260° West 360 414 36,000  Level Atlanta Center
03:16PM 35.2764 -82.8558 261° West 365 420 36,000  Level Atlanta Center
03:17PM 35.2589 -82.9933 261° West 372 428 36,000  Level Atlanta Center
03:18PM 35.2411 -83.1183 260° West 372 428 36,000  Level Atlanta Center
03:19PM 35.2294 -83.2303 263° West 372 428 36,000  Level Atlanta Center
03:20PM 35.2136 -83.3525 261° West 372 428 36,000  Level Atlanta Center
03:21PM 35.1975 -83.4669 260° West 367 422 36,000  Level Atlanta Center
03:22PM 35.1811 -83.5814 260° West 355 409 36,000  Level Atlanta Center
03:23PM 35.1650 -83.6958 260° West 355 409 36,000  Level Atlanta Center
03:24PM 35.1486 -83.8203 261° West 355 409 36,000  Level Atlanta Center
03:25PM 35.1342 -83.9347 261° West 355 409 36,000  Level Atlanta Center
03:26PM 35.1194 -84.0489 261° West 355 409 36,000  Level Atlanta Center
03:27PM 35.1006 -84.1631 259° West 355 409 36,000  Level Atlanta Center
03:28PM 35.0858 -84.2800 261° West 355 409 36,000  Level Atlanta Center
03:29PM 35.0689 -84.3914 260° West 355 409 36,000  Level Atlanta Center
03:30PM 35.0539 -84.5081 261° West 355 409 36,000  Level Atlanta Center
03:31PM 35.0367 -84.6247 260° West 355 409 36,000  Level Atlanta Center
03:32PM 35.0214 -84.7364 261° West 355 409 36,000  Level Atlanta Center
03:33PM 35.0061 -84.8503 261° West 355 409 36,000  Level Atlanta Center
03:34PM 34.9908 -84.9617 261° West 355 409 36,000  Level Atlanta Center
03:35PM 34.9733 -85.0706 259° West 350 403 36,000  Level Atlanta Center
03:36PM 34.9453 -85.1764 252° West 339 390 36,000  Level Atlanta Center
03:37PM 34.8861 -85.2567 228° Southwest 321 369 36,000  Level Atlanta Center
03:38PM 34.8289 -85.3369 229° Southwest 321 369 36,000  Level Atlanta Center
03:39PM 34.7736 -85.4169 230° Southwest 321 369 36,000  Level Atlanta Center
03:40PM 34.7164 -85.4944 228° Southwest 321 369 36,000  Level Atlanta Center
03:41PM 34.6592 -85.5692 227° Southwest 311 358 36,000  Level Atlanta Center
03:42PM 34.6039 -85.6489 230° Southwest 311 358 36,000  Level Atlanta Center
03:43PM 34.5467 -85.7258 228° Southwest 311 358 36,000  Level Atlanta Center
03:44PM 34.4892 -85.8028 228° Southwest 311 358 36,000  Level Atlanta Center
03:45PM 34.4403 -85.8675 228° Southwest 300 345 36,000  Level Atlanta Center
03:46PM 34.3806 -85.9442 227° Southwest 305 351 36,000  Level Atlanta Center
03:47PM 34.3253 -86.0208 229° Southwest 310 357 36,000  Level Atlanta Center
03:48PM 34.2697 -86.1000 230° Southwest 310 357 36,000  Level Atlanta Center
03:49PM 34.2119 -86.1739 227° Southwest 310 357 36,000  Level Atlanta Center
03:50PM 34.1542 -86.2528 229° Southwest 305 351 36,000  Level Atlanta Center
03:51PM 34.0964 -86.3292 228° Southwest 305 351 36,000  Level Atlanta Center
03:52PM 34.0386 -86.4053 228° Southwest 305 351 36,000  Level Atlanta Center
03:53PM 33.9767 -86.4886 228° Southwest 310 357 36,000  Level Atlanta Center
03:54PM 33.9206 -86.5672 229° Southwest 310 357 36,000  Level Atlanta Center
03:55PM 33.8606 -86.6456 227° Southwest 310 357 36,000  Level Atlanta Center
03:56PM 33.8006 -86.7211 226° Southwest 310 357 36,000  Level Atlanta Center
03:57PM 33.7444 -86.7992 229° Southwest 310 357 36,000  Level Atlanta Center
03:58PM 33.6844 -86.8772 227° Southwest 310 357 36,000  Level Atlanta Center
03:59PM 33.6425 -86.9683 241° Southwest 316 364 36,000  Level Atlanta Center
04:00PM 33.6086 -87.0719 249° West 316 364 36,000  Level Atlanta Center
04:01PM 33.5750 -87.1728 248° West 329 379 36,000  Level Atlanta Center
04:02PM 33.5389 -87.2739 247° West 334 384 36,000  Level Atlanta Center
04:04PM 33.4772 -87.4583 248° West 335 386 36,000  Level Memphis Center
04:05PM 33.4419 -87.5617 248° West 335 386 36,000  Level Memphis Center
04:06PM 33.4086 -87.6597 248° West 335 386 36,000  Level Memphis Center
04:07PM 33.3733 -87.7628 248° West 335 386 36,000  Level Memphis Center
04:08PM 33.3378 -87.8633 247° West 335 386 36,000  Level Memphis Center
04:09PM 33.3022 -87.9636 247° West 335 386 36,000  Level Memphis Center
04:10PM 33.2664 -88.0642 247° West 335 386 36,000 -600 Level Memphis Center
04:11PM 33.2308 -88.1642 247° West 335 386 34,900 -1,020 Descending Memphis Center
04:12PM 33.1992 -88.2719 251° West 335 386 34,000 -480 Descending Memphis Center
04:13PM 33.1633 -88.3744 247° West 335 386 34,000  Level Memphis Center
04:14PM 33.1272 -88.4769 247° West 335 386 34,000  Level Memphis Center
04:15PM 33.0869 -88.5744 244° Southwest 340 391 34,000  Level Memphis Center
04:16PM 33.0425 -88.6719 241° Southwest 340 391 34,000  Level Memphis Center
04:17PM 32.9978 -88.7744 243° Southwest 340 391 34,000  Level Memphis Center
04:18PM 32.9533 -88.8744 242° Southwest 346 398 34,000  Level Memphis Center
04:19PM 32.9083 -88.9717 241° Southwest 346 398 34,000  Level Memphis Center
04:20PM 32.8656 -89.0686 242° Southwest 341 392 34,000  Level Memphis Center
04:21PM 32.8206 -89.1683 242° Southwest 341 392 34,000  Level Memphis Center
04:22PM 32.7778 -89.2653 242° Southwest 341 392 34,000  Level Memphis Center
04:23PM 32.7325 -89.3644 242° Southwest 341 392 34,000  Level Memphis Center
04:24PM 32.6875 -89.4614 241° Southwest 341 392 34,000  Level Memphis Center
04:25PM 32.6422 -89.5628 242° Southwest 341 392 34,000  Level Memphis Center
04:26PM 32.5989 -89.6594 242° Southwest 341 392 34,000  Level Memphis Center
04:27PM 32.5536 -89.7583 242° Southwest 341 392 34,000  Level Memphis Center
04:28PM 32.5100 -89.8547 242° Southwest 341 392 34,000  Level Memphis Center
04:29PM 32.4644 -89.9536 241° Southwest 341 392 34,000  Level Memphis Center
04:30PM 32.4169 -90.0522 240° Southwest 341 392 34,000  Level Memphis Center
04:31PM 32.3733 -90.1506 242° Southwest 336 387 34,000  Level Memphis Center
04:32PM 32.3275 -90.2492 241° Southwest 336 387 34,000  Level Memphis Center
04:33PM 32.2817 -90.3475 241° Southwest 341 392 34,000  Level Memphis Center
04:34PM 32.2378 -90.4433 242° Southwest 341 392 34,000  Level Memphis Center
04:35PM 32.1936 -90.5414 242° Southwest 341 392 34,000  Level Memphis Center
04:36PM 32.1475 -90.6369 240° Southwest 341 392 34,000  Level Memphis Center
04:37PM 32.1014 -90.7325 240° Southwest 341 392 34,000  Level Memphis Center
04:38PM 32.0547 -90.8386 243° Southwest 335 386 34,000  Level Houston Center
04:39PM 32.0108 -90.9325 241° Southwest 328 377 34,000  Level Houston Center
04:40PM 31.9586 -91.0450 241° Southwest 328 377 34,000  Level Houston Center
04:41PM 31.9125 -91.1403 240° Southwest 333 383 34,000  Level Houston Center
04:42PM 31.8681 -91.2344 241° Southwest 331 381 34,000  Level Houston Center
04:43PM 31.8222 -91.3317 241° Southwest 338 389 34,000  Level Houston Center
04:44PM 31.7769 -91.4253 240° Southwest 330 380 34,000  Level Houston Center
04:45PM 31.7308 -91.5222 241° Southwest 336 387 34,000  Level Houston Center
04:46PM 31.6758 -91.6378 241° Southwest 339 390 34,000  Level Houston Center
04:47PM 31.6289 -91.7339 240° Southwest 339 390 34,000  Level Houston Center
04:48PM 31.5836 -91.8292 241° Southwest 337 388 34,000  Level Houston Center
04:49PM 31.5369 -91.9261 241° Southwest 340 391 34,000  Level Houston Center
04:50PM 31.4908 -92.0217 241° Southwest 338 389 34,000  Level Houston Center
04:51PM 31.4447 -92.1147 240° Southwest 333 383 34,000  Level Houston Center
04:52PM 31.3903 -92.2267 240° Southwest 331 381 34,000  Level Houston Center
04:53PM 31.3444 -92.3194 240° Southwest 329 379 34,000  Level Houston Center
04:54PM 31.2947 -92.4225 241° Southwest 331 381 34,000  Level Houston Center
04:55PM 31.2514 -92.5147 241° Southwest 325 374 34,000  Level Houston Center
04:56PM 31.1986 -92.6053 236° Southwest 330 380 34,000  Level Houston Center
04:57PM 31.1497 -92.6933 237° Southwest 331 381 34,000 -540 Level Houston Center
04:59PM 31.1383 -92.7958 263° West 321 369 32,900 -1,200 Descending Houston Center
05:00PM 31.1350 -92.9025 268° West 328 377 31,600 -1,380 Descending Houston Center
05:01PM 31.1314 -93.0347 268° West 339 390 30,100 -1,320 Descending Houston Center
05:02PM 31.1294 -93.1478 269° West 347 399 28,900 -1,200 Descending Houston Center
05:03PM 31.1233 -93.2650 267° West 361 415 27,700 -1,200 Descending Houston Center
05:04PM 31.0575 -93.3481 227° Southwest 349 402 26,400 -1,200 Descending Houston Center
05:05PM 30.9883 -93.4306 226° Southwest 356 410 25,200 -1,200 Descending Houston Center
05:06PM 30.9167 -93.5144 225° Southwest 363 418 24,000 -780 Descending Houston Center
05:07PM 30.8322 -93.6150 226° Southwest 351 404 23,600 -6,000 Descending Houston Center
05:08PM 30.7653 -93.6950 226° Southwest 345 397 11,600 -420 Descending Houston Center
05:09PM 30.6981 -93.7753 226° Southwest 346 398 22,800 5,340 Climbing Houston Center
05:10PM 30.6283 -93.8575 225° Southwest 353 406 22,700 -720 Descending Houston Center
05:11PM 30.5600 -93.9383 226° Southwest 349 402 21,400 -1,680 Descending Houston Center
05:12PM 30.4922 -94.0175 225° Southwest 343 395 19,300 -2,160 Descending Houston Center
05:13PM 30.4253 -94.0953 225° Southwest 339 390 17,000 -2,640 Descending Houston Center
05:14PM 30.3600 -94.1736 226° Southwest 342 394 14,400 -3,000 Descending Houston Center
05:14PM 30.3392 -94.1958 223° Southwest 338 389 13,600 -1,980 Descending Houston Center
05:15PM 30.2833 -94.2625 226° Southwest 324 373 12,000 -840 Descending Houston Center
05:16PM 30.2256 -94.3356 228° Southwest 311 358 12,000  Level Houston Center
05:17PM 30.1900 -94.4239 245° Southwest 304 350 12,000 -420 Level Houston Center
05:18PM 30.1556 -94.5119 246° West 305 351 11,200 -1,020 Descending Houston Center
05:19PM 30.1247 -94.5903 246° West 278 320 9,900 -1,560 Descending Houston Center
05:20PM 30.0917 -94.6811 247° West 261 300 8,000 -1,380 Descending Houston Center
05:21PM 30.0633 -94.7686 250° West 262 302 7,000 -900 Descending Houston Center
05:22PM 30.0428 -94.8411 252° West 263 303 6,200 -840 Descending Houston Center
05:23PM 30.0175 -94.9211 250° West 265 305 5,400 -600 Descending Houston Center
05:24PM 29.9964 -94.9978 252° West 259 298 5,000 -480 Descending Houston Center
05:25PM 29.9942 -95.0750 268° West 245 282 4,500 -960 Descending Houston Center
05:26PM 29.9925 -95.1542 269° West 188 216 3,100 -1,380 Descending Houston Center